Time;durP1;ratioP1;P1;durP2;ratioP2;P2;SDS_P1;SDS_P2;PMS_P1;PMS_P2;Temp;Humidity;BMP_temperature;BMP_pressure;BME280_temperature;BME280_humidity;BME280_pressure;Samples;Min_cycle;Max_cycle;Signal;HPM_P1;HPM_P2
2022/06/17 00:00:16;;;;;;;11.45;10.35;;;;;;;;;;5065732;28;20058;-75
2022/06/17 00:02:42;;;;;;;10.75;9.85;;;;;;;;;;5066737;28;20124;-75
2022/06/17 00:05:09;;;;;;;11.32;10.13;;;;;;;;;;5068554;28;20828;-75
2022/06/17 00:07:36;;;;;;;12.65;11.40;;;;;;;;;;5071672;28;20028;-75
2022/06/17 00:10:03;;;;;;;12.52;11.23;;;;;;;;;;5063385;28;20044;-75
2022/06/17 00:12:29;;;;;;;12.13;10.93;;;;;;;;;;5069538;28;20033;-75
2022/06/17 00:15:13;;;;;;;12.40;11.23;;;;;;;;;;5071671;28;20132;-75
2022/06/17 00:17:39;;;;;;;13.20;11.82;;;;;;;;;;5070220;28;20106;-75
2022/06/17 00:20:06;;;;;;;12.77;11.57;;;;;;;;;;5068451;28;20059;-75
2022/06/17 00:22:32;;;;;;;12.93;11.82;;;;;;;;;;5067062;28;20048;-75
2022/06/17 00:24:58;;;;;;;12.77;11.68;;;;;;;;;;5066759;28;20501;-75
2022/06/17 00:27:24;;;;;;;12.88;11.68;;;;;;;;;;5067278;28;20075;-75
2022/06/17 00:29:50;;;;;;;13.45;12.25;;;;;;;;;;5062669;28;20057;-75
2022/06/17 00:32:16;;;;;;;14.73;13.40;;;;;;;;;;5065561;28;20036;-75
2022/06/17 00:34:42;;;;;;;14.20;12.90;;;;;;;;;;5059129;28;20052;-74
2022/06/17 00:37:14;;;;;;;13.65;12.45;;;;;;;;;;5054277;28;20044;-75
2022/06/17 00:39:41;;;;;;;14.65;13.30;;;;;;;;;;5065281;28;20052;-75
2022/06/17 00:42:14;;;;;;;13.82;12.63;;;;;;;;;;5066401;28;20041;-75
2022/06/17 00:44:59;;;;;;;14.63;13.32;;;;;;;;;;5063213;28;20041;-75
2022/06/17 00:47:30;;;;;;;14.10;12.80;;;;;;;;;;5057013;28;20064;-75
2022/06/17 00:50:09;;;;;;;14.77;13.38;;;;;;;;;;5064262;28;20048;-75
2022/06/17 00:52:49;;;;;;;15.65;14.15;;;;;;;;;;5053583;28;20056;-75
2022/06/17 00:55:25;;;;;;;14.57;13.18;;;;;;;;;;5068023;28;20056;-75
2022/06/17 00:57:51;;;;;;;13.23;11.98;;;;;;;;;;5067359;28;20043;-75
2022/06/17 01:00:20;;;;;;;14.18;12.98;;;;;;;;;;5069953;28;20044;-75
2022/06/17 01:02:51;;;;;;;15.10;13.60;;;;;;;;;;5074467;28;20048;-75
2022/06/17 01:05:19;;;;;;;15.68;14.27;;;;;;;;;;5063323;28;20492;-75
2022/06/17 01:07:47;;;;;;;14.60;13.18;;;;;;;;;;5063633;28;20438;-75
2022/06/17 01:10:15;;;;;;;15.18;13.70;;;;;;;;;;5064780;28;20071;-75
2022/06/17 01:13:02;;;;;;;14.50;13.10;;;;;;;;;;5063494;28;20482;-75
2022/06/17 01:15:29;;;;;;;14.65;13.32;;;;;;;;;;5053016;28;20373;-75
2022/06/17 01:17:56;;;;;;;14.88;13.57;;;;;;;;;;5057878;28;20135;-75
2022/06/17 01:20:23;;;;;;;13.82;12.43;;;;;;;;;;5062525;28;20102;-75
2022/06/17 01:22:50;;;;;;;14.25;12.90;;;;;;;;;;5056550;28;20436;-75
2022/06/17 01:25:16;;;;;;;13.93;12.63;;;;;;;;;;5065223;28;20047;-75
2022/06/17 01:27:46;;;;;;;14.20;12.73;;;;;;;;;;5058799;28;20040;-75
2022/06/17 01:30:17;;;;;;;14.00;12.80;;;;;;;;;;5063352;28;20091;-75
2022/06/17 01:32:49;;;;;;;12.75;11.60;;;;;;;;;;5063157;28;20380;-75
2022/06/17 01:35:15;;;;;;;13.68;12.38;;;;;;;;;;5055244;28;20055;-75
2022/06/17 01:37:41;;;;;;;13.95;12.63;;;;;;;;;;5052278;28;20083;-75
2022/06/17 01:40:07;;;;;;;12.60;11.40;;;;;;;;;;5055869;28;20512;-75
2022/06/17 01:42:35;;;;;;;13.38;12.18;;;;;;;;;;5064498;28;20572;-75
2022/06/17 01:45:01;;;;;;;13.13;11.80;;;;;;;;;;5054414;28;20048;-75
2022/06/17 01:47:29;;;;;;;12.90;10.90;;;;;;;;;;5061454;28;20389;-75
2022/06/17 01:50:01;;;;;;;13.00;11.82;;;;;;;;;;5061865;28;20049;-76
2022/06/17 01:52:32;;;;;;;12.50;11.30;;;;;;;;;;5062181;28;20060;-75
2022/06/17 01:55:01;;;;;;;12.55;11.32;;;;;;;;;;5063067;28;20044;-75
2022/06/17 01:57:32;;;;;;;12.55;11.35;;;;;;;;;;5059645;28;20069;-75
2022/06/17 02:00:01;;;;;;;12.95;11.68;;;;;;;;;;5071505;28;20048;-75
2022/06/17 02:02:30;;;;;;;12.52;11.25;;;;;;;;;;5054579;28;20051;-75
2022/06/17 02:04:57;;;;;;;12.40;11.10;;;;;;;;;;5067145;28;20515;-75
2022/06/17 02:07:23;;;;;;;11.55;10.45;;;;;;;;;;5056551;28;20044;-75
2022/06/17 02:09:49;;;;;;;12.52;11.32;;;;;;;;;;5067258;28;20041;-75
2022/06/17 02:12:17;;;;;;;12.95;11.32;;;;;;;;;;5052752;28;20403;-75
2022/06/17 02:14:44;;;;;;;12.73;11.48;;;;;;;;;;5065801;28;20120;-75
2022/06/17 02:17:10;;;;;;;11.98;10.88;;;;;;;;;;5067243;28;20049;-75
2022/06/17 02:19:40;;;;;;;12.57;11.27;;;;;;;;;;5066768;28;20052;-75
2022/06/17 02:22:10;;;;;;;11.38;10.27;;;;;;;;;;5067943;28;20492;-75
2022/06/17 02:24:36;;;;;;;11.90;10.73;;;;;;;;;;5061652;28;20036;-75
2022/06/17 02:27:04;;;;;;;10.98;9.95;;;;;;;;;;5063877;28;20052;-75
2022/06/17 02:29:31;;;;;;;11.38;10.25;;;;;;;;;;5053961;28;20047;-75
2022/06/17 02:31:58;;;;;;;11.52;10.38;;;;;;;;;;5062373;28;20491;-75
2022/06/17 02:34:25;;;;;;;11.57;10.52;;;;;;;;;;5052695;28;20049;-75
2022/06/17 02:37:05;;;;;;;12.05;10.95;;;;;;;;;;5059509;28;20379;-75
2022/06/17 02:39:32;;;;;;;11.77;10.57;;;;;;;;;;5060618;28;20507;-76
2022/06/17 02:41:58;;;;;;;13.13;11.93;;;;;;;;;;5058544;28;20055;-75
2022/06/17 02:44:26;;;;;;;11.50;10.35;;;;;;;;;;5065166;28;20053;-75
2022/06/17 02:46:54;;;;;;;11.32;10.32;;;;;;;;;;5062703;28;20075;-75
2022/06/17 02:49:28;;;;;;;12.00;10.80;;;;;;;;;;5064538;28;20098;-75
2022/06/17 02:51:54;;;;;;;11.95;10.75;;;;;;;;;;5065962;28;20044;-75
2022/06/17 02:54:52;;;;;;;12.43;10.40;;;;;;;;;;5057983;28;20510;-75
2022/06/17 02:57:21;;;;;;;11.52;10.40;;;;;;;;;;5038970;28;20956;-75
2022/06/17 02:59:50;;;;;;;11.60;10.50;;;;;;;;;;5060018;28;20048;-75
2022/06/17 03:02:19;;;;;;;11.43;10.25;;;;;;;;;;5060392;28;20056;-75
2022/06/17 03:04:46;;;;;;;11.75;10.35;;;;;;;;;;5060811;28;20119;-75
2022/06/17 03:07:14;;;;;;;11.55;10.45;;;;;;;;;;5058627;28;20064;-75
2022/06/17 03:09:40;;;;;;;12.27;11.13;;;;;;;;;;5057696;28;20377;-75
2022/06/17 03:12:11;;;;;;;11.90;10.70;;;;;;;;;;5063094;28;20365;-75
2022/06/17 03:14:40;;;;;;;12.07;10.88;;;;;;;;;;5061341;28;20106;-75
2022/06/17 03:17:08;;;;;;;11.82;10.73;;;;;;;;;;5062209;28;20052;-75
2022/06/17 03:19:36;;;;;;;11.23;10.13;;;;;;;;;;5062348;28;20052;-75
2022/06/17 03:22:03;;;;;;;11.27;10.18;;;;;;;;;;5068019;28;20037;-75
2022/06/17 03:24:52;;;;;;;10.85;9.82;;;;;;;;;;5061565;28;20555;-75
2022/06/17 03:27:20;;;;;;;11.02;9.85;;;;;;;;;;5067488;28;20063;-75
2022/06/17 03:29:47;;;;;;;11.15;10.07;;;;;;;;;;5068767;28;20047;-75
2022/06/17 03:32:22;;;;;;;11.73;10.15;;;;;;;;;;5072124;28;20376;-75
2022/06/17 03:34:50;;;;;;;10.88;9.88;;;;;;;;;;5064045;28;20118;-75
2022/06/17 03:37:21;;;;;;;11.02;9.88;;;;;;;;;;5065786;28;20159;-75
2022/06/17 03:39:48;;;;;;;12.02;10.85;;;;;;;;;;5064565;28;20127;-75
2022/06/17 03:42:18;;;;;;;11.73;10.48;;;;;;;;;;5059708;28;20473;-75
2022/06/17 03:44:53;;;;;;;10.95;9.85;;;;;;;;;;5059298;28;20048;-75
2022/06/17 03:47:19;;;;;;;10.70;9.73;;;;;;;;;;5054981;28;20048;-75
2022/06/17 03:49:57;;;;;;;10.98;9.98;;;;;;;;;;5058662;28;20110;-75
2022/06/17 03:52:52;;;;;;;12.85;10.18;;;;;;;;;;5056709;28;20056;-75
2022/06/17 03:55:19;;;;;;;10.55;9.55;;;;;;;;;;5055364;28;20139;-75
2022/06/17 03:57:50;;;;;;;10.50;9.60;;;;;;;;;;5066488;28;20060;-75
2022/06/17 04:00:26;;;;;;;10.55;9.65;;;;;;;;;;5071254;28;20403;-75
2022/06/17 04:02:53;;;;;;;10.52;9.40;;;;;;;;;;5070389;28;20064;-75
2022/06/17 04:05:20;;;;;;;11.05;10.02;;;;;;;;;;5071610;28;20037;-75
2022/06/17 04:07:47;;;;;;;11.20;10.05;;;;;;;;;;5067531;28;20056;-75
2022/06/17 04:10:18;;;;;;;10.63;9.63;;;;;;;;;;5071186;28;20056;-75
2022/06/17 04:12:47;;;;;;;10.98;9.90;;;;;;;;;;5070338;28;20052;-75
2022/06/17 04:15:31;;;;;;;11.68;9.98;;;;;;;;;;5072021;28;20052;-75
2022/06/17 04:17:57;;;;;;;11.40;10.27;;;;;;;;;;5059518;28;20071;-75
2022/06/17 04:20:26;;;;;;;10.98;9.88;;;;;;;;;;5055382;28;20584;-75
2022/06/17 04:22:57;;;;;;;10.60;9.70;;;;;;;;;;5055265;28;20055;-75
2022/06/17 04:25:40;;;;;;;10.93;9.60;;;;;;;;;;5059369;28;20491;-75
2022/06/17 04:28:09;;;;;;;11.50;10.25;;;;;;;;;;5067930;28;20644;-75
2022/06/17 04:30:40;;;;;;;11.15;9.93;;;;;;;;;;5069538;28;20040;-75
2022/06/17 04:33:13;;;;;;;10.68;9.55;;;;;;;;;;5057692;28;20109;-75
2022/06/17 04:35:40;;;;;;;10.55;9.55;;;;;;;;;;5059106;28;20112;-75
2022/06/17 04:38:06;;;;;;;9.65;8.85;;;;;;;;;;5063622;28;20045;-75
2022/06/17 04:40:37;;;;;;;12.10;9.68;;;;;;;;;;5056629;28;20041;-75
2022/06/17 04:43:05;;;;;;;10.95;9.95;;;;;;;;;;5052749;28;20052;-75
2022/06/17 04:45:31;;;;;;;10.55;9.45;;;;;;;;;;5070879;28;20040;-75
2022/06/17 04:47:57;;;;;;;10.77;9.65;;;;;;;;;;5066506;28;20376;-75
2022/06/17 04:50:25;;;;;;;11.27;9.77;;;;;;;;;;5062469;28;20048;-75
2022/06/17 04:52:55;;;;;;;10.68;9.32;;;;;;;;;;5064254;28;20089;-75
2022/06/17 04:55:34;;;;;;;10.35;9.40;;;;;;;;;;5060708;28;20057;-75
2022/06/17 04:58:03;;;;;;;11.90;9.50;;;;;;;;;;5065481;28;20477;-75
2022/06/17 05:00:30;;;;;;;12.00;9.50;;;;;;;;;;5064987;28;20048;-75
2022/06/17 05:02:57;;;;;;;10.77;9.77;;;;;;;;;;5061366;28;20045;-75
2022/06/17 05:05:35;;;;;;;11.23;10.13;;;;;;;;;;5063587;28;20082;-75
2022/06/17 05:08:03;;;;;;;11.57;9.77;;;;;;;;;;5061946;28;20041;-75
2022/06/17 05:10:31;;;;;;;10.18;9.27;;;;;;;;;;5061589;28;20128;-75
2022/06/17 05:13:07;;;;;;;10.95;9.95;;;;;;;;;;5070545;28;20052;-75
2022/06/17 05:15:33;;;;;;;11.48;9.70;;;;;;;;;;5064254;28;20059;-76
2022/06/17 05:17:59;;;;;;;10.57;9.48;;;;;;;;;;5062055;28;20056;-75
2022/06/17 05:20:25;;;;;;;10.52;9.52;;;;;;;;;;5058892;28;20047;-75
2022/06/17 05:22:55;;;;;;;11.32;9.82;;;;;;;;;;5064387;28;20102;-75
2022/06/17 05:25:23;;;;;;;10.52;9.60;;;;;;;;;;5062213;28;20076;-75
2022/06/17 05:27:49;;;;;;;10.65;9.65;;;;;;;;;;5065356;28;20033;-75
2022/06/17 05:30:15;;;;;;;11.55;10.40;;;;;;;;;;5065072;28;20204;-75
2022/06/17 05:32:44;;;;;;;11.68;10.27;;;;;;;;;;5063789;28;20041;-75
2022/06/17 05:35:10;;;;;;;11.50;10.00;;;;;;;;;;5064631;28;20089;-76
2022/06/17 05:37:36;;;;;;;11.50;10.20;;;;;;;;;;5060274;28;20052;-75
2022/06/17 05:40:03;;;;;;;10.60;9.60;;;;;;;;;;5058661;28;20139;-76
2022/06/17 05:42:29;;;;;;;10.98;9.98;;;;;;;;;;5063498;28;20052;-76
2022/06/17 05:44:56;;;;;;;10.88;9.63;;;;;;;;;;5057315;28;20049;-75
2022/06/17 05:47:22;;;;;;;10.32;9.38;;;;;;;;;;5064154;28;20048;-75
2022/06/17 05:49:48;;;;;;;10.65;9.55;;;;;;;;;;5054546;28;20491;-75
2022/06/17 05:52:15;;;;;;;12.07;9.93;;;;;;;;;;5062316;28;20064;-75
2022/06/17 05:54:41;;;;;;;11.45;10.25;;;;;;;;;;5054245;28;20507;-75
2022/06/17 05:57:07;;;;;;;11.50;9.68;;;;;;;;;;5056239;28;20064;-75
2022/06/17 05:59:33;;;;;;;9.88;8.88;;;;;;;;;;5065330;28;20068;-76
2022/06/17 06:01:59;;;;;;;10.57;9.68;;;;;;;;;;5060116;28;20396;-76
2022/06/17 06:04:26;;;;;;;11.30;9.90;;;;;;;;;;5060886;28;20040;-76
2022/06/17 06:06:52;;;;;;;11.98;10.10;;;;;;;;;;5057699;28;20325;-76
2022/06/17 06:09:18;;;;;;;10.93;9.82;;;;;;;;;;5062458;28;20043;-76
2022/06/17 06:11:44;;;;;;;10.82;9.70;;;;;;;;;;5049575;28;20048;-76
2022/06/17 06:14:10;;;;;;;10.70;9.57;;;;;;;;;;5059486;28;20438;-76
2022/06/17 06:16:38;;;;;;;12.60;9.20;;;;;;;;;;5051042;28;20094;-76
2022/06/17 06:19:05;;;;;;;9.77;8.77;;;;;;;;;;5056589;28;20048;-76
2022/06/17 06:21:31;;;;;;;10.35;9.35;;;;;;;;;;5052701;28;20063;-76
2022/06/17 06:23:57;;;;;;;10.20;9.20;;;;;;;;;;5050733;28;20037;-76
2022/06/17 06:26:23;;;;;;;10.75;9.65;;;;;;;;;;5054259;28;20245;-76
2022/06/17 06:28:50;;;;;;;9.93;8.93;;;;;;;;;;5056037;28;20534;-76
2022/06/17 06:31:19;;;;;;;9.73;8.82;;;;;;;;;;5058740;28;20391;-76
2022/06/17 06:33:45;;;;;;;11.43;9.00;;;;;;;;;;5052883;28;20041;-76
2022/06/17 06:36:11;;;;;;;9.23;8.32;;;;;;;;;;5057580;28;20043;-76
2022/06/17 06:38:37;;;;;;;10.10;7.97;;;;;;;;;;5058238;28;20040;-76
2022/06/17 06:41:03;;;;;;;8.65;7.30;;;;;;;;;;5066275;28;20055;-76
2022/06/17 06:43:29;;;;;;;8.73;7.80;;;;;;;;;;5073548;28;20044;-77
2022/06/17 06:45:55;;;;;;;8.45;7.57;;;;;;;;;;5070262;28;20055;-76
2022/06/17 06:48:23;;;;;;;7.90;7.05;;;;;;;;;;5068467;28;20479;-76
2022/06/17 06:50:49;;;;;;;8.02;6.82;;;;;;;;;;5060531;28;20131;-76
2022/06/17 06:53:15;;;;;;;8.25;7.35;;;;;;;;;;5065952;28;20052;-77
2022/06/17 06:55:42;;;;;;;8.27;7.20;;;;;;;;;;5069504;28;20438;-76
2022/06/17 06:58:15;;;;;;;8.95;7.72;;;;;;;;;;5066801;28;20376;-76
2022/06/17 07:00:43;;;;;;;9.95;6.75;;;;;;;;;;5060021;28;20044;-77
2022/06/17 07:03:09;;;;;;;8.75;6.82;;;;;;;;;;5055716;28;20041;-77
2022/06/17 07:05:36;;;;;;;7.38;6.45;;;;;;;;;;5069291;28;20058;-77
2022/06/17 07:08:03;;;;;;;7.35;6.63;;;;;;;;;;5076448;28;20059;-76
2022/06/17 07:10:30;;;;;;;7.70;6.82;;;;;;;;;;5080174;28;20512;-76
2022/06/17 07:12:57;;;;;;;7.30;6.68;;;;;;;;;;5066611;28;20036;-76
2022/06/17 07:15:23;;;;;;;7.63;6.80;;;;;;;;;;5062067;28;20059;-76
2022/06/17 07:17:57;;;;;;;7.60;6.82;;;;;;;;;;5057652;28;20045;-76
2022/06/17 07:20:23;;;;;;;7.43;6.72;;;;;;;;;;5062280;28;20052;-76
2022/06/17 07:22:49;;;;;;;6.78;6.10;;;;;;;;;;5057167;28;20548;-76
2022/06/17 07:25:16;;;;;;;7.13;6.50;;;;;;;;;;5059157;28;20045;-76
2022/06/17 07:27:42;;;;;;;6.85;6.07;;;;;;;;;;5050599;28;20041;-75
2022/06/17 07:30:08;;;;;;;7.25;6.40;;;;;;;;;;5054556;28;20048;-76
2022/06/17 07:32:34;;;;;;;7.47;6.40;;;;;;;;;;5067748;28;20048;-77
2022/06/17 07:35:00;;;;;;;7.75;6.90;;;;;;;;;;5075032;28;20048;-77
2022/06/17 07:40:11;;;;;;;6.47;5.88;;;;;;;;;;5073661;28;20052;-77
2022/06/17 07:42:40;;;;;;;8.32;5.90;;;;;;;;;;5063913;28;20442;-76
2022/06/17 07:45:11;;;;;;;7.85;5.85;;;;;;;;;;5066829;28;20040;-77
2022/06/17 07:47:37;;;;;;;6.38;5.78;;;;;;;;;;5075011;28;20047;-76
2022/06/17 07:50:05;;;;;;;7.20;5.72;;;;;;;;;;5076186;28;20045;-76
2022/06/17 07:52:31;;;;;;;8.18;6.03;;;;;;;;;;5071505;28;20072;-77
2022/06/17 07:54:57;;;;;;;6.88;5.43;;;;;;;;;;5071500;28;20036;-77
2022/06/17 07:57:23;;;;;;;8.20;6.03;;;;;;;;;;5065095;28;20113;-77
2022/06/17 07:59:49;;;;;;;7.45;5.05;;;;;;;;;;5066821;28;20051;-76
2022/06/17 08:02:15;;;;;;;5.57;5.07;;;;;;;;;;5067814;28;20044;-76
2022/06/17 08:04:41;;;;;;;5.85;5.25;;;;;;;;;;5068359;28;20076;-75
2022/06/17 08:07:08;;;;;;;8.73;5.53;;;;;;;;;;5070474;28;20067;-76
2022/06/17 08:09:34;;;;;;;7.57;5.95;;;;;;;;;;5065197;28;20045;-76
2022/06/17 08:12:00;;;;;;;7.43;5.57;;;;;;;;;;5071477;28;20056;-77
2022/06/17 08:14:26;;;;;;;8.60;5.70;;;;;;;;;;5066982;28;20506;-77
2022/06/17 08:16:52;;;;;;;6.30;5.70;;;;;;;;;;5068754;28;20064;-77
2022/06/17 08:19:19;;;;;;;8.75;5.63;;;;;;;;;;5081555;28;20089;-78
2022/06/17 08:21:45;;;;;;;6.85;5.65;;;;;;;;;;5075659;28;20048;-77
2022/06/17 08:24:11;;;;;;;6.40;5.03;;;;;;;;;;5068514;28;20045;-76
2022/06/17 08:26:38;;;;;;;5.72;4.93;;;;;;;;;;5057375;28;20041;-77
2022/06/17 08:29:04;;;;;;;8.93;5.50;;;;;;;;;;5062971;28;20041;-77
2022/06/17 08:31:30;;;;;;;6.07;5.22;;;;;;;;;;5055026;28;20044;-77
2022/06/17 08:33:56;;;;;;;6.57;5.65;;;;;;;;;;5065887;28;20076;-76
2022/06/17 08:36:23;;;;;;;8.13;5.80;;;;;;;;;;5070241;28;20067;-76
2022/06/17 08:38:51;;;;;;;8.57;5.97;;;;;;;;;;5078198;28;20589;-77
2022/06/17 08:41:23;;;;;;;8.00;6.22;;;;;;;;;;5059130;28;20488;-77
2022/06/17 08:43:52;;;;;;;10.23;5.65;;;;;;;;;;5056625;28;20045;-77
2022/06/17 08:46:18;;;;;;;7.00;5.85;;;;;;;;;;5056951;28;20088;-77
2022/06/17 08:49:19;;;;;;;6.03;5.43;;;;;;;;;;5066513;28;20064;-77
2022/06/17 08:52:04;;;;;;;7.32;6.03;;;;;;;;;;4997999;28;20049;-77
2022/06/17 08:54:45;;;;;;;8.30;6.07;;;;;;;;;;5066006;28;20057;-77
2022/06/17 08:57:15;;;;;;;7.85;6.35;;;;;;;;;;5063344;28;20055;-76
2022/06/17 09:00:00;;;;;;;6.75;5.93;;;;;;;;;;5065724;28;20048;-77
2022/06/17 09:02:45;;;;;;;9.07;6.82;;;;;;;;;;5060880;28;20059;-77
2022/06/17 09:05:37;;;;;;;9.10;6.22;;;;;;;;;;5061119;28;20101;-77
2022/06/17 09:08:18;;;;;;;7.03;6.05;;;;;;;;;;5058546;28;20059;-77
2022/06/17 09:11:04;;;;;;;6.28;5.68;;;;;;;;;;5069069;28;20045;-77
2022/06/17 09:13:38;;;;;;;6.97;5.40;;;;;;;;;;5070716;28;20729;-77
2022/06/17 09:16:16;;;;;;;7.78;5.57;;;;;;;;;;5069984;28;20055;-76
2022/06/17 09:18:44;;;;;;;5.70;4.88;;;;;;;;;;5072118;28;20052;-77
2022/06/17 09:21:15;;;;;;;7.20;5.50;;;;;;;;;;5070454;28;20047;-77
2022/06/17 09:23:42;;;;;;;8.13;6.25;;;;;;;;;;5059402;28;20055;-77
2022/06/17 09:26:11;;;;;;;7.07;6.45;;;;;;;;;;5067741;28;20156;-76
2022/06/17 09:28:39;;;;;;;9.13;6.00;;;;;;;;;;5063167;28;20463;-76
2022/06/17 09:31:09;;;;;;;8.27;5.38;;;;;;;;;;5068676;28;20045;-76
2022/06/17 09:33:40;;;;;;;8.27;5.60;;;;;;;;;;5062501;28;20103;-76
2022/06/17 09:36:11;;;;;;;8.65;6.10;;;;;;;;;;5058206;28;20433;-76
2022/06/17 09:38:51;;;;;;;7.07;5.47;;;;;;;;;;5061897;28;20060;-77
2022/06/17 09:41:17;;;;;;;7.32;5.88;;;;;;;;;;5064611;28;20084;-76
2022/06/17 09:43:46;;;;;;;6.63;5.97;;;;;;;;;;5065621;28;20068;-76
2022/06/17 09:46:16;;;;;;;6.00;5.40;;;;;;;;;;5059159;28;20078;-76
2022/06/17 09:49:00;;;;;;;9.48;5.55;;;;;;;;;;5060757;28;20048;-76
2022/06/17 09:51:29;;;;;;;7.35;5.60;;;;;;;;;;5071655;28;20760;-76
2022/06/17 09:53:58;;;;;;;7.15;6.30;;;;;;;;;;5064702;28;20037;-77
2022/06/17 09:56:28;;;;;;;6.78;6.03;;;;;;;;;;5072880;28;20053;-76
2022/06/17 09:59:13;;;;;;;6.95;6.25;;;;;;;;;;5069081;28;20435;-76
2022/06/17 10:01:40;;;;;;;7.22;6.45;;;;;;;;;;5070336;28;20380;-77
2022/06/17 10:04:11;;;;;;;7.13;6.47;;;;;;;;;;5074999;28;20041;-77
2022/06/17 10:06:49;;;;;;;8.20;6.32;;;;;;;;;;5066128;28;20188;-76
2022/06/17 10:09:26;;;;;;;7.43;6.70;;;;;;;;;;5075931;28;20048;-76
2022/06/17 10:12:10;;;;;;;9.40;7.07;;;;;;;;;;5064418;28;20048;-76
2022/06/17 10:14:36;;;;;;;8.35;7.15;;;;;;;;;;5065937;28;20076;-76
2022/06/17 10:19:56;;;;;;;8.05;6.80;;;;;;;;;;5065497;28;20076;-76
2022/06/17 10:22:31;;;;;;;8.60;6.90;;;;;;;;;;5070117;28;20044;-76
2022/06/17 10:25:12;;;;;;;8.20;7.07;;;;;;;;;;5066687;28;20135;-77
2022/06/17 10:27:39;;;;;;;9.10;6.78;;;;;;;;;;5072557;28;20693;-77
2022/06/17 10:30:13;;;;;;;9.25;7.35;;;;;;;;;;5067595;28;20185;-77
2022/06/17 10:32:41;;;;;;;10.18;7.47;;;;;;;;;;5057829;28;20102;-76
2022/06/17 10:35:14;;;;;;;9.52;7.00;;;;;;;;;;5060112;28;20504;-76
2022/06/17 10:37:40;;;;;;;7.80;6.72;;;;;;;;;;5061813;28;20054;-76
2022/06/17 10:40:08;;;;;;;9.77;7.32;;;;;;;;;;5062432;28;20036;-77
2022/06/17 10:42:34;;;;;;;8.90;6.93;;;;;;;;;;5064948;28;20036;-76
2022/06/17 10:45:01;;;;;;;8.45;7.07;;;;;;;;;;5061909;28;20052;-77
2022/06/17 10:47:36;;;;;;;8.38;7.05;;;;;;;;;;5058933;28;20439;-77
2022/06/17 10:50:06;;;;;;;8.65;6.38;;;;;;;;;;5055359;28;20400;-77
2022/06/17 10:52:38;;;;;;;8.68;7.25;;;;;;;;;;5058975;28;20055;-77
2022/06/17 10:55:15;;;;;;;8.85;7.40;;;;;;;;;;5060734;28;20045;-77
2022/06/17 10:58:01;;;;;;;8.18;6.82;;;;;;;;;;5066076;28;20036;-77
2022/06/17 11:00:28;;;;;;;9.57;7.03;;;;;;;;;;5055751;28;20052;-77
2022/06/17 11:02:54;;;;;;;7.47;6.75;;;;;;;;;;5067936;28;20052;-77
2022/06/17 11:05:31;;;;;;;8.68;7.10;;;;;;;;;;5070425;28;20535;-76
2022/06/17 11:07:57;;;;;;;8.95;6.35;;;;;;;;;;5066720;28;20514;-77
2022/06/17 11:10:28;;;;;;;6.53;5.75;;;;;;;;;;5063390;28;20037;-78
2022/06/17 11:12:54;;;;;;;6.07;5.20;;;;;;;;;;5071992;28;20063;-77
2022/06/17 11:15:26;;;;;;;7.85;5.22;;;;;;;;;;5058309;28;20044;-78
2022/06/17 11:17:54;;;;;;;9.30;6.23;;;;;;;;;;5082396;28;20063;-78
2022/06/17 11:20:20;;;;;;;7.57;5.68;;;;;;;;;;5086416;28;20137;-78
2022/06/17 11:22:54;;;;;;;8.40;5.60;;;;;;;;;;5081413;28;20043;-78
2022/06/17 11:25:33;;;;;;;7.45;5.15;;;;;;;;;;5060725;28;20052;-78
2022/06/17 11:28:29;;;;;;;7.50;5.10;;;;;;;;;;5064716;28;20037;-78
2022/06/17 11:31:02;;;;;;;10.27;5.43;;;;;;;;;;5052724;28;20049;-78
2022/06/17 11:33:42;;;;;;;6.25;5.25;;;;;;;;;;5067208;28;20450;-78
2022/06/17 11:36:17;;;;;;;6.20;5.45;;;;;;;;;;5073649;28;20096;-78
2022/06/17 11:38:43;;;;;;;10.07;5.50;;;;;;;;;;5070029;28;20503;-79
2022/06/17 11:41:10;;;;;;;7.97;5.53;;;;;;;;;;5065081;28;20499;-79
2022/06/17 11:43:38;;;;;;;6.35;4.72;;;;;;;;;;5065455;28;20041;-79
2022/06/17 11:46:12;;;;;;;7.13;4.93;;;;;;;;;;5060126;28;20144;-78
2022/06/17 11:48:40;;;;;;;6.82;5.35;;;;;;;;;;5063414;28;20040;-78
2022/06/17 11:51:11;;;;;;;6.88;5.00;;;;;;;;;;5067728;28;20044;-78
2022/06/17 11:53:51;;;;;;;7.13;5.30;;;;;;;;;;5064262;28;20052;-78
2022/06/17 11:56:36;;;;;;;5.28;4.78;;;;;;;;;;5066754;28;20068;-78
2022/06/17 11:59:23;;;;;;;6.72;5.00;;;;;;;;;;5069366;28;20048;-78
2022/06/17 12:02:01;;;;;;;6.82;4.40;;;;;;;;;;5070566;28;20041;-79
2022/06/17 12:04:47;;;;;;;6.97;4.60;;;;;;;;;;5061524;28;20068;-79
2022/06/17 12:07:32;;;;;;;6.47;4.80;;;;;;;;;;5066956;28;20067;-79
2022/06/17 12:10:14;;;;;;;7.30;5.10;;;;;;;;;;5064396;28;20048;-79
2022/06/17 12:12:40;;;;;;;7.47;5.13;;;;;;;;;;5068433;28;20161;-80
2022/06/17 12:15:12;;;;;;;7.50;5.03;;;;;;;;;;5065623;28;20048;-80
2022/06/17 12:17:39;;;;;;;5.40;4.90;;;;;;;;;;5070051;28;20055;-80
2022/06/17 12:20:21;;;;;;;6.35;5.70;;;;;;;;;;5069063;28;20056;-81
2022/06/17 12:22:51;;;;;;;6.15;5.20;;;;;;;;;;5065101;28;20043;-79
2022/06/17 12:25:40;;;;;;;6.28;5.00;;;;;;;;;;5071273;28;20032;-80
2022/06/17 12:28:25;;;;;;;8.10;5.20;;;;;;;;;;5069362;28;20067;-79
2022/06/17 12:30:57;;;;;;;5.53;5.03;;;;;;;;;;5064699;28;20376;-83
2022/06/17 12:33:38;;;;;;;5.97;4.90;;;;;;;;;;5067990;28;20063;-81
2022/06/17 12:36:07;;;;;;;6.03;5.10;;;;;;;;;;5071095;28;20036;-82
2022/06/17 12:38:49;;;;;;;6.97;5.40;;;;;;;;;;5058533;28;20403;-80
2022/06/17 12:41:23;;;;;;;7.25;5.28;;;;;;;;;;5075676;28;20511;-81
2022/06/17 12:44:08;;;;;;;8.07;4.93;;;;;;;;;;5071672;28;20045;-81
2022/06/17 12:46:44;;;;;;;5.32;4.80;;;;;;;;;;5064612;28;20048;-79
2022/06/17 12:55:24;;;;;;;7.80;4.93;;;;;;;;;;5045876;28;20794;-81
2022/06/17 12:58:03;;;;;;;5.55;4.50;;;;;;;;;;5066457;28;20505;-80
2022/06/17 13:00:35;;;;;;;6.22;4.43;;;;;;;;;;5065855;28;20075;-80
2022/06/17 13:03:27;;;;;;;5.47;4.95;;;;;;;;;;5070412;28;20128;-80
2022/06/17 13:05:56;;;;;;;6.57;4.35;;;;;;;;;;5061977;28;20106;-78
2022/06/17 13:08:22;;;;;;;5.78;4.10;;;;;;;;;;5068308;28;20045;-80
2022/06/17 13:10:51;;;;;;;4.70;4.10;;;;;;;;;;5066345;28;21335;-79
2022/06/17 13:13:35;;;;;;;5.47;4.28;;;;;;;;;;5066479;28;20508;-77
2022/06/17 13:16:09;;;;;;;6.85;4.38;;;;;;;;;;5058518;28;20056;-79
2022/06/17 13:18:35;;;;;;;5.50;4.00;;;;;;;;;;5064979;28;20080;-79
2022/06/17 13:21:04;;;;;;;6.40;4.03;;;;;;;;;;5060239;28;20079;-77
2022/06/17 13:23:39;;;;;;;6.22;3.85;;;;;;;;;;5061014;28;20045;-79
2022/06/17 13:26:12;;;;;;;6.80;3.50;;;;;;;;;;5062301;28;20070;-79
2022/06/17 13:28:38;;;;;;;;;;;;;;;;;;5063444;28;20408;-79
2022/06/17 13:31:17;;;;;;;4.30;3.50;;;;;;;;;;5060899;28;19924;-79
2022/06/17 13:33:54;;;;;;;4.57;3.60;;;;;;;;;;5066031;28;20175;-79
2022/06/17 13:36:22;;;;;;;4.55;3.67;;;;;;;;;;5065282;28;20097;-79
2022/06/17 13:39:07;;;;;;;4.13;3.72;;;;;;;;;;5065793;28;20081;-86
2022/06/17 13:41:43;;;;;;;4.20;3.42;;;;;;;;;;5073106;28;20100;-80
2022/06/17 13:44:21;;;;;;;4.63;3.70;;;;;;;;;;5077106;28;20037;-80
2022/06/17 13:46:57;;;;;;;5.53;3.50;;;;;;;;;;5064822;28;20455;-79
2022/06/17 13:49:33;;;;;;;5.95;3.50;;;;;;;;;;5065098;28;20040;-77
2022/06/17 13:52:11;;;;;;;3.78;3.47;;;;;;;;;;5064095;28;20125;-77
2022/06/17 13:54:56;;;;;;;4.93;3.25;;;;;;;;;;5069152;28;20044;-78
2022/06/17 13:57:25;;;;;;;8.07;3.15;;;;;;;;;;5058848;28;20063;-77
2022/06/17 13:59:54;;;;;;;4.60;3.40;;;;;;;;;;5063952;28;20056;-76
2022/06/17 14:02:46;;;;;;;3.17;2.97;;;;;;;;;;5068341;28;20056;-78
2022/06/17 14:05:22;;;;;;;6.47;3.20;;;;;;;;;;5042263;28;20567;-77
2022/06/17 14:07:54;;;;;;;4.95;2.92;;;;;;;;;;5058700;28;20048;-78
2022/06/17 14:10:26;;;;;;;4.50;3.17;;;;;;;;;;5054495;28;20049;-77
2022/06/17 14:12:53;;;;;;;4.18;3.28;;;;;;;;;;5067832;28;20380;-77
2022/06/17 14:15:23;;;;;;;4.43;2.92;;;;;;;;;;5058744;28;20067;-77
2022/06/17 14:17:53;;;;;;;5.00;2.90;;;;;;;;;;5065421;28;20056;-78
2022/06/17 14:20:26;;;;;;;4.75;2.90;;;;;;;;;;5060362;28;20508;-78
2022/06/17 14:23:01;;;;;;;3.83;2.75;;;;;;;;;;5066284;28;20040;-77
2022/06/17 14:25:44;;;;;;;3.20;2.90;;;;;;;;;;5066996;28;20186;-77
2022/06/17 14:28:10;;;;;;;;;;;;;;;;;;5068000;28;20207;-77
2022/06/17 14:30:40;;;;;;;5.13;3.10;;;;;;;;;;5065986;28;20435;-75
2022/06/17 14:33:16;;;;;;;8.63;3.13;;;;;;;;;;5068932;28;20051;-78
2022/06/17 14:35:52;;;;;;;3.50;2.80;;;;;;;;;;5059446;28;20056;-78
2022/06/17 14:38:48;;;;;;;7.85;2.80;;;;;;;;;;5050856;28;20041;-78
2022/06/17 14:44:16;;;;;;;4.53;2.75;;;;;;;;;;5060329;28;20052;-78
2022/06/17 14:47:00;;;;;;;3.15;2.78;;;;;;;;;;5059681;28;20068;-77
2022/06/17 14:49:41;;;;;;;4.45;2.53;;;;;;;;;;5063198;28;20076;-77
2022/06/17 14:52:26;;;;;;;5.97;2.90;;;;;;;;;;5060354;28;20540;-78
2022/06/17 14:55:15;;;;;;;4.22;2.85;;;;;;;;;;5053820;28;20055;-77
2022/06/17 14:57:45;;;;;;;3.15;2.40;;;;;;;;;;5076834;28;20082;-79
2022/06/17 15:00:12;;;;;;;5.05;2.70;;;;;;;;;;5060915;28;20041;-79
2022/06/17 15:02:40;;;;;;;4.70;2.55;;;;;;;;;;5066659;28;20515;-79
2022/06/17 15:05:12;;;;;;;3.58;2.58;;;;;;;;;;5054413;28;20040;-79
2022/06/17 15:07:39;;;;;;;4.97;2.70;;;;;;;;;;5052880;28;20510;-79
2022/06/17 15:10:26;;;;;;;5.13;2.70;;;;;;;;;;5051618;28;20045;-79